Time,TemperatureF,DewpointF,PressureIn,WindDirection,WindDirectionDegrees,WindSpeedMPH,WindSpeedGustMPH,Humidity,HourlyPrecipIn,Conditions,Clouds,dailyrainin,SoftwareType,DateUTC
2013-04-18 00:04:00,34.4,31.5,30.05,NE,48,1.0,4.0,89,0.00,,,0.00,VWS V12.07,2013-04-18 05:04:00,
2013-04-18 00:09:00,34.4,31.8,30.05,NE,44,2.0,4.0,90,0.00,,,0.00,VWS V12.07,2013-04-18 05:09:00,
2013-04-18 00:14:00,34.4,31.8,30.05,NE,55,2.0,7.0,90,0.00,,,0.00,VWS V12.07,2013-04-18 05:14:00,
2013-04-18 00:19:00,34.3,31.7,30.04,NE,44,3.0,7.0,90,0.00,,,0.00,VWS V12.07,2013-04-18 05:19:00,
2013-04-18 00:24:00,34.1,31.8,30.03,NE,45,2.0,7.0,91,0.00,,,0.00,VWS V12.07,2013-04-18 05:24:00,
2013-04-18 00:29:00,34.1,31.8,30.03,NE,38,3.0,7.0,91,0.00,,,0.00,VWS V12.07,2013-04-18 05:29:00,
2013-04-18 00:34:00,33.9,31.6,30.02,NE,49,1.0,3.0,91,0.01,,,0.01,VWS V12.07,2013-04-18 05:34:00,
2013-04-18 00:39:00,33.9,31.8,30.02,NE,48,3.0,4.0,92,0.01,,,0.01,VWS V12.07,2013-04-18 05:39:00,
2013-04-18 00:49:00,33.8,31.7,30.01,NE,53,5.0,7.0,92,0.02,,,0.02,VWS V12.07,2013-04-18 05:49:00,
2013-04-18 00:54:00,33.7,31.6,30.01,NE,38,0.0,7.0,92,0.02,,,0.02,VWS V12.07,2013-04-18 05:54:00,
2013-04-18 00:59:00,33.7,31.6,30.00,NE,41,2.0,7.0,92,0.02,,,0.02,VWS V12.07,2013-04-18 05:59:00,
2013-04-18 01:04:00,33.7,31.6,30.00,NE,52,1.0,4.0,92,0.02,,,0.02,VWS V12.07,2013-04-18 06:04:00,
2013-04-18 01:09:00,33.6,31.5,30.00,NE,56,3.0,4.0,92,0.02,,,0.02,VWS V12.07,2013-04-18 06:09:00,
2013-04-18 01:14:00,33.6,31.5,29.99,NE,40,2.0,4.0,92,0.02,,,0.02,VWS V12.07,2013-04-18 06:14:00,
2013-04-18 01:19:00,33.6,31.8,29.98,ENE,65,1.0,4.0,93,0.02,,,0.02,VWS V12.07,2013-04-18 06:19:00,
2013-04-18 01:24:00,33.6,31.5,29.97,ENE,57,3.0,6.0,92,0.02,,,0.02,VWS V12.07,2013-04-18 06:24:00,
2013-04-18 01:29:00,33.6,31.5,29.96,NE,45,3.0,8.0,92,0.02,,,0.02,VWS V12.07,2013-04-18 06:29:00,
2013-04-18 01:34:00,33.6,31.8,29.94,NE,48,5.0,5.0,93,0.01,,,0.02,VWS V12.07,2013-04-18 06:34:00,
2013-04-18 01:39:00,33.5,31.7,29.94,NE,44,1.0,6.0,93,0.01,,,0.02,VWS V12.07,2013-04-18 06:39:00,
2013-04-18 01:44:00,33.5,31.7,29.93,ENE,67,3.0,7.0,93,0.01,,,0.02,VWS V12.07,2013-04-18 06:44:00,
2013-04-18 01:49:00,33.6,31.8,29.92,NE,44,4.0,7.0,93,0.01,,,0.02,VWS V12.07,2013-04-18 06:49:00,
2013-04-18 01:54:00,33.6,31.8,29.91,NE,49,7.0,9.0,93,0.01,,,0.02,VWS V12.07,2013-04-18 06:54:00,
2013-04-18 01:59:00,33.6,31.8,29.89,NE,49,2.0,9.0,93,0.01,,,0.02,VWS V12.07,2013-04-18 06:59:00,
2013-04-18 02:04:00,33.6,31.8,29.88,NE,46,3.0,8.0,93,0.00,,,0.02,VWS V12.07,2013-04-18 07:04:00,
2013-04-18 02:09:00,33.6,31.8,29.88,NE,41,4.0,8.0,93,0.00,,,0.02,VWS V12.07,2013-04-18 07:09:00,
2013-04-18 02:14:00,33.6,31.8,29.88,ENE,71,1.0,8.0,93,0.00,,,0.02,VWS V12.07,2013-04-18 07:14:00,
2013-04-18 02:19:00,33.7,31.9,29.90,NNE,30,5.0,8.0,93,0.01,,,0.03,VWS V12.07,2013-04-18 07:19:00,
2013-04-18 02:24:00,33.7,31.9,29.90,NNE,25,5.0,8.0,93,0.01,,,0.03,VWS V12.07,2013-04-18 07:24:00,
2013-04-18 02:29:00,33.7,31.9,29.91,NNE,26,1.0,8.0,93,0.01,,,0.03,VWS V12.07,2013-04-18 07:29:00,
2013-04-18 02:34:00,33.7,31.9,29.90,NE,51,1.0,3.0,93,0.01,,,0.03,VWS V12.07,2013-04-18 07:34:00,
2013-04-18 02:44:00,33.7,31.9,29.89,NE,38,1.0,4.0,93,0.01,,,0.03,VWS V12.07,2013-04-18 07:44:00,
2013-04-18 02:49:00,33.7,31.9,29.89,NE,43,2.0,4.0,93,0.01,,,0.03,VWS V12.07,2013-04-18 07:49:00,
2013-04-18 02:54:00,33.7,31.9,29.89,NE,49,3.0,5.0,93,0.01,,,0.03,VWS V12.07,2013-04-18 07:54:00,
2013-04-18 02:59:00,33.7,31.9,29.88,ENE,60,4.0,7.0,93,0.01,,,0.03,VWS V12.07,2013-04-18 07:59:00,
2013-04-18 03:04:00,33.7,31.9,29.87,NE,51,5.0,5.0,93,0.01,,,0.03,VWS V12.07,2013-04-18 08:04:00,
2013-04-18 03:14:00,33.6,31.8,29.86,ENE,65,3.0,5.0,93,0.01,,,0.03,VWS V12.07,2013-04-18 08:14:00,
2013-04-18 03:19:00,33.6,31.8,29.86,ENE,65,4.0,5.0,93,0.01,,,0.03,VWS V12.07,2013-04-18 08:19:00,
2013-04-18 03:24:00,33.6,31.8,29.86,NE,53,3.0,5.0,93,0.01,,,0.03,VWS V12.07,2013-04-18 08:24:00,
2013-04-18 03:29:00,33.6,31.8,29.86,NE,37,2.0,5.0,93,0.01,,,0.03,VWS V12.07,2013-04-18 08:29:00,
2013-04-18 03:34:00,33.5,31.7,29.86,NNE,27,2.0,3.0,93,0.00,,,0.03,VWS V12.07,2013-04-18 08:34:00,
2013-04-18 03:44:00,33.5,31.7,29.87,NE,54,1.0,5.0,93,0.00,,,0.03,VWS V12.07,2013-04-18 08:44:00,
2013-04-18 03:49:00,33.5,31.7,29.88,ENE,61,1.0,7.0,93,0.00,,,0.03,VWS V12.07,2013-04-18 08:49:00,
2013-04-18 03:54:00,33.5,31.7,29.88,ENE,63,2.0,7.0,93,0.00,,,0.03,VWS V12.07,2013-04-18 08:54:00,
2013-04-18 03:59:00,33.5,31.7,29.88,NE,46,2.0,7.0,93,0.00,,,0.03,VWS V12.07,2013-04-18 08:59:00,
2013-04-18 04:04:00,33.5,31.7,29.87,NE,36,3.0,4.0,93,0.00,,,0.03,VWS V12.07,2013-04-18 09:04:00,
2013-04-18 04:09:00,33.5,31.7,29.87,NNE,26,3.0,4.0,93,0.00,,,0.03,VWS V12.07,2013-04-18 09:09:00,
2013-04-18 04:14:00,33.5,31.7,29.87,NE,56,3.0,4.0,93,0.00,,,0.03,VWS V12.07,2013-04-18 09:14:00,
2013-04-18 04:19:00,33.5,31.7,29.87,NE,46,2.0,5.0,93,0.01,,,0.04,VWS V12.07,2013-04-18 09:19:00,
2013-04-18 04:24:00,33.5,31.7,29.86,NE,43,4.0,5.0,93,0.01,,,0.04,VWS V12.07,2013-04-18 09:24:00,
2013-04-18 04:29:00,33.4,31.6,29.85,NNE,28,4.0,5.0,93,0.01,,,0.04,VWS V12.07,2013-04-18 09:29:00,
2013-04-18 04:34:00,33.4,31.6,29.84,NE,34,2.0,4.0,93,0.01,,,0.04,VWS V12.07,2013-04-18 09:34:00,
2013-04-18 04:39:00,33.4,31.6,29.84,NE,41,3.0,5.0,93,0.01,,,0.04,VWS V12.07,2013-04-18 09:39:00,
2013-04-18 04:44:00,33.4,31.6,29.84,ENE,57,3.0,5.0,93,0.02,,,0.05,VWS V12.07,2013-04-18 09:44:00,
2013-04-18 04:49:00,33.4,31.6,29.84,NE,41,3.0,6.0,93,0.02,,,0.05,VWS V12.07,2013-04-18 09:49:00,
2013-04-18 04:54:00,33.4,31.9,29.84,NNE,30,4.0,7.0,94,0.02,,,0.05,VWS V12.07,2013-04-18 09:54:00,
2013-04-18 04:59:00,33.4,31.9,29.84,NE,40,3.0,7.0,94,0.02,,,0.05,VWS V12.07,2013-04-18 09:59:00,
2013-04-18 05:04:00,33.3,31.8,29.83,NE,47,1.0,5.0,94,0.02,,,0.05,VWS V12.07,2013-04-18 10:04:00,
2013-04-18 05:09:00,33.3,31.8,29.83,ENE,78,2.0,5.0,94,0.02,,,0.05,VWS V12.07,2013-04-18 10:09:00,
2013-04-18 05:14:00,33.3,31.8,29.83,NE,44,2.0,7.0,94,0.02,,,0.05,VWS V12.07,2013-04-18 10:14:00,
2013-04-18 05:19:00,33.2,31.7,29.82,ENE,59,2.0,7.0,94,0.02,,,0.05,VWS V12.07,2013-04-18 10:19:00,
2013-04-18 05:24:00,33.2,31.7,29.82,ENE,61,2.0,7.0,94,0.02,,,0.05,VWS V12.07,2013-04-18 10:24:00,
2013-04-18 05:34:00,33.2,31.7,29.82,ENE,72,1.0,2.0,94,0.02,,,0.06,VWS V12.07,2013-04-18 10:34:00,
2013-04-18 05:39:00,33.1,31.6,29.82,NE,45,0.0,4.0,94,0.02,,,0.06,VWS V12.07,2013-04-18 10:39:00,
2013-04-18 05:44:00,33.1,31.6,29.82,NE,40,2.0,4.0,94,0.02,,,0.06,VWS V12.07,2013-04-18 10:44:00,
2013-04-18 05:49:00,33.1,31.3,29.82,NE,55,1.0,4.0,93,0.02,,,0.06,VWS V12.07,2013-04-18 10:49:00,
2013-04-18 05:54:00,33.0,31.2,29.82,NE,53,2.0,4.0,93,0.03,,,0.07,VWS V12.07,2013-04-18 10:54:00,
2013-04-18 05:59:00,33.0,31.5,29.81,NE,54,3.0,4.0,94,0.03,,,0.07,VWS V12.07,2013-04-18 10:59:00,
2013-04-18 06:04:00,33.0,31.5,29.81,NE,49,3.0,4.0,94,0.02,,,0.07,VWS V12.07,2013-04-18 11:04:00,
2013-04-18 06:09:00,33.0,31.5,29.80,NE,42,2.0,5.0,94,0.02,,,0.07,VWS V12.07,2013-04-18 11:09:00,
2013-04-18 06:14:00,32.9,31.4,29.80,NNE,33,3.0,5.0,94,0.02,,,0.07,VWS V12.07,2013-04-18 11:14:00,
2013-04-18 06:19:00,32.9,31.4,29.80,NE,49,2.0,5.0,94,0.02,,,0.07,VWS V12.07,2013-04-18 11:19:00,
2013-04-18 06:24:00,32.9,31.4,29.80,NE,48,4.0,5.0,94,0.02,,,0.07,VWS V12.07,2013-04-18 11:24:00,
2013-04-18 06:29:00,32.8,31.3,29.80,ENE,61,1.0,5.0,94,0.03,,,0.08,VWS V12.07,2013-04-18 11:29:00,
2013-04-18 06:34:00,32.8,31.3,29.80,NNE,21,3.0,4.0,94,0.03,,,0.08,VWS V12.07,2013-04-18 11:34:00,
2013-04-18 06:39:00,32.8,31.3,29.80,NE,55,2.0,4.0,94,0.03,,,0.08,VWS V12.07,2013-04-18 11:39:00,
2013-04-18 06:44:00,32.7,31.2,29.79,NNE,30,4.0,5.0,94,0.03,,,0.08,VWS V12.07,2013-04-18 11:44:00,
2013-04-18 06:49:00,32.6,31.1,29.79,NE,46,4.0,5.0,94,0.03,,,0.08,VWS V12.07,2013-04-18 11:49:00,
2013-04-18 06:54:00,32.6,31.1,29.79,NE,42,2.0,5.0,94,0.03,,,0.08,VWS V12.07,2013-04-18 11:54:00,
2013-04-18 06:59:00,32.5,31.0,29.79,NE,42,2.0,8.0,94,0.03,,,0.08,VWS V12.07,2013-04-18 11:59:00,
2013-04-18 07:04:00,32.5,31.0,29.79,NE,44,3.0,3.0,94,0.01,,,0.08,VWS V12.07,2013-04-18 12:04:00,
2013-04-18 07:09:00,32.5,31.0,29.79,NE,55,1.0,3.0,94,0.01,,,0.08,VWS V12.07,2013-04-18 12:09:00,
2013-04-18 07:14:00,32.5,31.0,29.79,NE,44,0.0,3.0,94,0.01,,,0.08,VWS V12.07,2013-04-18 12:14:00,
2013-04-18 07:19:00,32.5,31.0,29.79,NE,50,1.0,3.0,94,0.01,,,0.08,VWS V12.07,2013-04-18 12:19:00,
2013-04-18 07:24:00,32.6,31.1,29.79,NE,48,1.0,3.0,94,0.01,,,0.08,VWS V12.07,2013-04-18 12:24:00,
2013-04-18 07:29:00,32.6,31.1,29.79,NE,34,0.0,5.0,94,0.01,,,0.08,VWS V12.07,2013-04-18 12:29:00,
2013-04-18 07:34:00,32.6,31.1,29.79,NNE,24,1.0,4.0,94,0.01,,,0.09,VWS V12.07,2013-04-18 12:34:00,
2013-04-18 07:44:00,32.6,31.1,29.78,NNE,29,1.0,5.0,94,0.01,,,0.09,VWS V12.07,2013-04-18 12:44:00,
2013-04-18 07:49:00,32.6,31.1,29.78,NE,34,1.0,6.0,94,0.01,,,0.09,VWS V12.07,2013-04-18 12:49:00,
2013-04-18 07:54:00,32.6,31.1,29.78,ENE,59,4.0,6.0,94,0.01,,,0.09,VWS V12.07,2013-04-18 12:54:00,
2013-04-18 07:59:00,32.6,31.1,29.78,NE,40,3.0,6.0,94,0.01,,,0.09,VWS V12.07,2013-04-18 12:59:00,
2013-04-18 08:09:00,32.6,31.1,29.77,NE,35,1.0,4.0,94,0.01,,,0.09,VWS V12.07,2013-04-18 13:09:00,
2013-04-18 08:14:00,32.7,31.2,29.78,ENE,57,3.0,5.0,94,0.02,,,0.10,VWS V12.07,2013-04-18 13:14:00,
2013-04-18 08:19:00,32.7,31.2,29.78,ENE,64,2.0,5.0,94,0.02,,,0.10,VWS V12.07,2013-04-18 13:19:00,
2013-04-18 08:29:00,32.8,31.3,29.79,NNE,18,0.0,5.0,94,0.02,,,0.10,VWS V12.07,2013-04-18 13:29:00,
2013-04-18 08:34:00,32.9,31.4,29.79,NNW,346,1.0,3.0,94,0.01,,,0.10,VWS V12.07,2013-04-18 13:34:00,
2013-04-18 08:39:00,32.9,31.4,29.79,NNE,26,1.0,3.0,94,0.02,,,0.11,VWS V12.07,2013-04-18 13:39:00,
2013-04-18 08:49:00,33.1,31.6,29.78,NE,44,0.0,4.0,94,0.02,,,0.11,VWS V12.07,2013-04-18 13:49:00,
2013-04-18 08:54:00,33.2,31.7,29.78,NNE,33,1.0,4.0,94,0.03,,,0.12,VWS V12.07,2013-04-18 13:54:00,
2013-04-18 09:04:00,33.3,31.8,29.76,NNE,33,1.0,5.0,94,0.03,,,0.12,VWS V12.07,2013-04-18 14:04:00,
2013-04-18 09:09:00,33.4,31.9,29.75,NE,40,2.0,5.0,94,0.03,,,0.12,VWS V12.07,2013-04-18 14:09:00,
2013-04-18 09:14:00,33.5,32.0,29.75,NE,46,3.0,6.0,94,0.03,,,0.12,VWS V12.07,2013-04-18 14:14:00,
2013-04-18 09:19:00,33.5,32.0,29.74,ENE,63,4.0,6.0,94,0.03,,,0.12,VWS V12.07,2013-04-18 14:19:00,
2013-04-18 09:24:00,33.5,32.0,29.74,NE,34,3.0,7.0,94,0.03,,,0.12,VWS V12.07,2013-04-18 14:24:00,
2013-04-18 09:29:00,33.5,32.0,29.73,NE,38,4.0,7.0,94,0.03,,,0.12,VWS V12.07,2013-04-18 14:29:00,
2013-04-18 09:34:00,33.7,32.2,29.73,ENE,71,3.0,4.0,94,0.02,,,0.12,VWS V12.07,2013-04-18 14:34:00,
2013-04-18 09:39:00,33.8,32.3,29.72,NE,36,5.0,5.0,94,0.02,,,0.12,VWS V12.07,2013-04-18 14:39:00,
2013-04-18 09:44:00,33.8,32.3,29.72,NNE,29,1.0,7.0,94,0.02,,,0.12,VWS V12.07,2013-04-18 14:44:00,
2013-04-18 09:49:00,33.9,32.4,29.72,North,10,5.0,7.0,94,0.02,,,0.12,VWS V12.07,2013-04-18 14:49:00,
2013-04-18 09:54:00,33.9,32.4,29.70,ENE,65,4.0,7.0,94,0.02,,,0.12,VWS V12.07,2013-04-18 14:54:00,
2013-04-18 09:59:00,34.1,32.6,29.70,NE,55,4.0,7.0,94,0.02,,,0.12,VWS V12.07,2013-04-18 14:59:00,
2013-04-18 10:04:00,34.1,32.6,29.69,ENE,57,4.0,4.0,94,0.00,,,0.12,VWS V12.07,2013-04-18 15:04:00,
2013-04-18 10:09:00,34.3,32.8,29.69,ENE,71,3.0,5.0,94,0.00,,,0.12,VWS V12.07,2013-04-18 15:09:00,
2013-04-18 10:14:00,34.3,32.8,29.68,NE,34,3.0,7.0,94,0.00,,,0.12,VWS V12.07,2013-04-18 15:14:00,
2013-04-18 10:19:00,34.4,32.9,29.68,ENE,71,5.0,7.0,94,0.00,,,0.12,VWS V12.07,2013-04-18 15:19:00,
2013-04-18 10:24:00,34.4,32.9,29.66,NE,50,1.0,7.0,94,0.00,,,0.12,VWS V12.07,2013-04-18 15:24:00,
2013-04-18 10:29:00,34.4,32.9,29.65,NE,42,7.0,10.0,94,0.00,,,0.12,VWS V12.07,2013-04-18 15:29:00,
2013-04-18 10:34:00,34.5,32.7,29.64,NE,49,4.0,10.0,93,0.00,,,0.12,VWS V12.07,2013-04-18 15:34:00,
2013-04-18 10:39:00,34.5,32.7,29.62,ENE,63,7.0,12.0,93,0.00,,,0.12,VWS V12.07,2013-04-18 15:39:00,
2013-04-18 10:44:00,34.6,32.8,29.61,NE,40,2.0,13.0,93,0.00,,,0.12,VWS V12.07,2013-04-18 15:44:00,
2013-04-18 10:54:00,34.8,33.0,29.67,NE,40,1.0,13.0,93,0.00,,,0.12,VWS V12.07,2013-04-18 15:54:00,
2013-04-18 10:59:00,34.8,33.0,29.69,NNW,336,4.0,13.0,93,0.00,,,0.12,VWS V12.07,2013-04-18 15:59:00,
2013-04-18 11:04:00,34.7,32.9,29.66,NE,42,4.0,6.0,93,0.00,,,0.12,VWS V12.07,2013-04-18 16:04:00,
2013-04-18 11:09:00,34.7,32.9,29.68,North,355,2.0,6.0,93,0.00,,,0.12,VWS V12.07,2013-04-18 16:09:00,
2013-04-18 11:14:00,34.8,33.0,29.67,NE,46,3.0,6.0,93,0.00,,,0.12,VWS V12.07,2013-04-18 16:14:00,
2013-04-18 11:19:00,34.8,33.0,29.67,NE,35,0.0,6.0,93,0.00,,,0.12,VWS V12.07,2013-04-18 16:19:00,
2013-04-18 11:29:00,35.0,33.2,29.68,NNE,30,0.0,6.0,93,0.00,,,0.12,VWS V12.07,2013-04-18 16:29:00,
2013-04-18 11:34:00,35.0,33.2,29.68,NE,42,2.0,6.0,93,0.00,,,0.12,VWS V12.07,2013-04-18 16:34:00,
2013-04-18 11:39:00,34.9,33.1,29.67,North,10,3.0,6.0,93,0.00,,,0.12,VWS V12.07,2013-04-18 16:39:00,
2013-04-18 11:44:00,34.9,33.1,29.68,NNE,26,2.0,7.0,93,0.00,,,0.12,VWS V12.07,2013-04-18 16:44:00,
2013-04-18 11:49:00,34.9,33.1,29.67,NNE,24,3.0,7.0,93,0.00,,,0.12,VWS V12.07,2013-04-18 16:49:00,
2013-04-18 11:54:00,34.9,33.1,29.67,NE,40,2.0,7.0,93,0.00,,,0.12,VWS V12.07,2013-04-18 16:54:00,
2013-04-18 11:59:00,34.9,33.1,29.67,NNE,21,0.0,7.0,93,0.00,,,0.12,VWS V12.07,2013-04-18 16:59:00,
2013-04-18 12:04:00,34.9,33.1,29.67,NNE,25,3.0,3.0,93,0.00,,,0.12,VWS V12.07,2013-04-18 17:04:00,
2013-04-18 12:09:00,35.0,33.2,29.68,NE,50,0.0,5.0,93,0.00,,,0.12,VWS V12.07,2013-04-18 17:09:00,
2013-04-18 12:14:00,35.0,33.2,29.69,East,91,3.0,5.0,93,0.00,,,0.12,VWS V12.07,2013-04-18 17:14:00,
2013-04-18 12:19:00,34.9,33.1,29.69,NE,34,0.0,5.0,93,0.00,,,0.12,VWS V12.07,2013-04-18 17:19:00,
2013-04-18 12:29:00,34.6,32.5,29.71,NNE,21,0.0,6.0,92,0.00,,,0.12,VWS V12.07,2013-04-18 17:29:00,
2013-04-18 12:34:00,34.5,32.4,29.70,NE,40,4.0,5.0,92,0.00,,,0.12,VWS V12.07,2013-04-18 17:34:00,
2013-04-18 12:44:00,34.4,32.3,29.69,NNE,27,3.0,5.0,92,0.00,,,0.12,VWS V12.07,2013-04-18 17:44:00,
2013-04-18 12:49:00,34.4,32.6,29.68,NNE,30,3.0,5.0,93,0.00,,,0.12,VWS V12.07,2013-04-18 17:49:00,
2013-04-18 12:54:00,34.4,32.6,29.68,NNE,32,2.0,5.0,93,0.00,,,0.12,VWS V12.07,2013-04-18 17:54:00,
2013-04-18 12:59:00,34.3,32.5,29.68,NE,40,0.0,5.0,93,0.00,,,0.12,VWS V12.07,2013-04-18 17:59:00,
2013-04-18 13:04:00,34.4,32.6,29.69,NNE,32,3.0,3.0,93,0.00,,,0.12,VWS V12.07,2013-04-18 18:04:00,
2013-04-18 13:09:00,34.2,32.4,29.68,North,360,5.0,5.0,93,0.00,,,0.12,VWS V12.07,2013-04-18 18:09:00,
2013-04-18 13:14:00,34.1,32.3,29.68,NNE,25,4.0,7.0,93,0.00,,,0.12,VWS V12.07,2013-04-18 18:14:00,
2013-04-18 13:24:00,34.2,32.4,29.67,NNE,22,4.0,7.0,93,0.00,,,0.12,VWS V12.07,2013-04-18 18:24:00,
2013-04-18 13:29:00,34.3,32.5,29.66,NE,36,1.0,7.0,93,0.00,,,0.12,VWS V12.07,2013-04-18 18:29:00,
2013-04-18 13:34:00,34.4,32.6,29.65,NNE,24,4.0,6.0,93,0.00,,,0.12,VWS V12.07,2013-04-18 18:34:00,
2013-04-18 13:39:00,34.3,32.5,29.65,NNE,17,5.0,6.0,93,0.00,,,0.12,VWS V12.07,2013-04-18 18:39:00,
2013-04-18 13:44:00,34.2,32.4,29.66,ENE,69,1.0,6.0,93,0.00,,,0.12,VWS V12.07,2013-04-18 18:44:00,
2013-04-18 13:49:00,34.3,32.5,29.65,NE,46,2.0,6.0,93,0.00,,,0.12,VWS V12.07,2013-04-18 18:49:00,
2013-04-18 13:54:00,34.4,32.6,29.66,NE,41,3.0,7.0,93,0.00,,,0.12,VWS V12.07,2013-04-18 18:54:00,
2013-04-18 13:59:00,34.4,32.6,29.66,NE,46,3.0,7.0,93,0.00,,,0.12,VWS V12.07,2013-04-18 18:59:00,
2013-04-18 14:04:00,34.4,32.6,29.66,NE,48,4.0,4.0,93,0.00,,,0.12,VWS V12.07,2013-04-18 19:04:00,
2013-04-18 14:09:00,34.4,32.6,29.66,ENE,76,3.0,6.0,93,0.00,,,0.12,VWS V12.07,2013-04-18 19:09:00,
2013-04-18 14:14:00,34.4,32.6,29.67,NNE,27,6.0,8.0,93,0.00,,,0.12,VWS V12.07,2013-04-18 19:14:00,
2013-04-18 14:19:00,34.4,32.6,29.66,ENE,67,5.0,8.0,93,0.00,,,0.12,VWS V12.07,2013-04-18 19:19:00,
2013-04-18 14:29:00,34.4,32.6,29.65,North,355,1.0,8.0,93,0.00,,,0.12,VWS V12.07,2013-04-18 19:29:00,
2013-04-18 14:34:00,34.4,32.6,29.65,ENE,67,3.0,5.0,93,0.00,,,0.12,VWS V12.07,2013-04-18 19:34:00,
2013-04-18 14:39:00,34.5,32.7,29.65,NE,55,3.0,6.0,93,0.00,,,0.12,VWS V12.07,2013-04-18 19:39:00,
2013-04-18 14:44:00,34.4,32.6,29.66,NNE,32,3.0,7.0,93,0.00,,,0.12,VWS V12.07,2013-04-18 19:44:00,
2013-04-18 14:49:00,34.4,32.6,29.65,ENE,57,4.0,7.0,93,0.00,,,0.12,VWS V12.07,2013-04-18 19:49:00,
2013-04-18 14:54:00,34.4,32.6,29.65,NE,53,2.0,7.0,93,0.00,,,0.12,VWS V12.07,2013-04-18 19:54:00,
2013-04-18 14:59:00,34.4,32.6,29.65,NNE,25,2.0,7.0,93,0.00,,,0.12,VWS V12.07,2013-04-18 19:59:00,
2013-04-18 15:04:00,34.4,32.6,29.64,ENE,61,1.0,7.0,93,0.00,,,0.12,VWS V12.07,2013-04-18 20:04:00,
2013-04-18 15:09:00,34.4,32.6,29.64,ENE,57,1.0,7.0,93,0.00,,,0.12,VWS V12.07,2013-04-18 20:09:00,
2013-04-18 15:14:00,34.4,32.6,29.63,NNE,24,3.0,7.0,93,0.00,,,0.12,VWS V12.07,2013-04-18 20:14:00,
2013-04-18 15:19:00,34.4,32.6,29.63,NE,48,3.0,7.0,93,0.00,,,0.12,VWS V12.07,2013-04-18 20:19:00,
2013-04-18 15:24:00,34.5,32.7,29.62,NE,53,3.0,7.0,93,0.00,,,0.12,VWS V12.07,2013-04-18 20:24:00,
2013-04-18 15:29:00,34.6,32.5,29.62,NE,52,1.0,7.0,92,0.00,,,0.12,VWS V12.07,2013-04-18 20:29:00,
2013-04-18 15:39:00,34.6,32.5,29.60,ENE,67,3.0,9.0,92,0.00,,,0.12,VWS V12.07,2013-04-18 20:39:00,
2013-04-18 15:44:00,34.6,32.5,29.60,NE,52,2.0,9.0,92,0.00,,,0.12,VWS V12.07,2013-04-18 20:44:00,
2013-04-18 15:54:00,34.8,32.7,29.61,NE,51,3.0,9.0,92,0.00,,,0.12,VWS V12.07,2013-04-18 20:54:00,
2013-04-18 16:04:00,34.8,32.7,29.60,NE,53,4.0,5.0,92,0.00,,,0.12,VWS V12.07,2013-04-18 21:04:00,
2013-04-18 16:14:00,34.8,32.5,29.59,East,90,5.0,9.0,91,0.00,,,0.12,VWS V12.07,2013-04-18 21:14:00,
2013-04-18 16:24:00,34.7,32.3,29.57,ENE,71,3.0,9.0,91,0.00,,,0.12,VWS V12.07,2013-04-18 21:24:00,
2013-04-18 16:29:00,34.6,32.2,29.57,NE,53,3.0,9.0,91,0.00,,,0.12,VWS V12.07,2013-04-18 21:29:00,
2013-04-18 16:34:00,34.5,32.4,29.57,ESE,105,0.0,7.0,92,0.00,,,0.12,VWS V12.07,2013-04-18 21:34:00,
2013-04-18 16:39:00,34.4,32.3,29.56,East,82,2.0,7.0,92,0.00,,,0.12,VWS V12.07,2013-04-18 21:39:00,
2013-04-18 16:44:00,34.4,32.3,29.56,NE,53,4.0,8.0,92,0.00,,,0.12,VWS V12.07,2013-04-18 21:44:00,
2013-04-18 16:49:00,34.4,32.3,29.55,NNE,16,5.0,8.0,92,0.00,,,0.12,VWS V12.07,2013-04-18 21:49:00,
2013-04-18 16:54:00,34.4,32.3,29.54,NE,48,7.0,8.0,92,0.00,,,0.12,VWS V12.07,2013-04-18 21:54:00,
2013-04-18 16:59:00,34.4,32.3,29.53,NE,46,7.0,11.0,92,0.00,,,0.12,VWS V12.07,2013-04-18 21:59:00,
2013-04-18 17:04:00,34.4,32.3,29.54,NE,41,4.0,6.0,92,0.00,,,0.12,VWS V12.07,2013-04-18 22:04:00,
2013-04-18 17:09:00,34.4,32.3,29.54,NE,42,3.0,7.0,92,0.00,,,0.12,VWS V12.07,2013-04-18 22:09:00,
2013-04-18 17:14:00,34.4,32.6,29.53,NE,37,3.0,7.0,93,0.01,,,0.13,VWS V12.07,2013-04-18 22:14:00,
2013-04-18 17:24:00,34.3,32.5,29.52,ENE,60,5.0,8.0,93,0.03,,,0.15,VWS V12.07,2013-04-18 22:24:00,
2013-04-18 17:34:00,34.1,32.3,29.49,NE,46,3.0,6.0,93,0.05,,,0.17,VWS V12.07,2013-04-18 22:34:00,
2013-04-18 17:39:00,34.1,32.3,29.49,ENE,78,5.0,10.0,93,0.07,,,0.19,VWS V12.07,2013-04-18 22:39:00,
2013-04-18 17:44:00,34.0,32.2,29.49,NNE,32,4.0,10.0,93,0.08,,,0.20,VWS V12.07,2013-04-18 22:44:00,
2013-04-18 17:54:00,33.9,32.1,29.49,ENE,63,2.0,10.0,93,0.08,,,0.20,VWS V12.07,2013-04-18 22:54:00,
2013-04-18 18:04:00,33.9,32.1,29.48,ENE,60,3.0,5.0,93,0.09,,,0.21,VWS V12.07,2013-04-18 23:04:00,
2013-04-18 18:09:00,33.9,32.1,29.49,NE,40,5.0,5.0,93,0.09,,,0.21,VWS V12.07,2013-04-18 23:09:00,
2013-04-18 18:14:00,33.9,32.4,29.48,NE,43,5.0,8.0,94,0.09,,,0.21,VWS V12.07,2013-04-18 23:14:00,
2013-04-18 18:19:00,33.9,32.4,29.48,NE,44,6.0,9.0,94,0.09,,,0.21,VWS V12.07,2013-04-18 23:19:00,
2013-04-18 18:24:00,33.9,32.4,29.48,NE,38,4.0,9.0,94,0.10,,,0.22,VWS V12.07,2013-04-18 23:24:00,
2013-04-18 18:29:00,33.9,32.4,29.47,NE,36,3.0,9.0,94,0.10,,,0.22,VWS V12.07,2013-04-18 23:29:00,
2013-04-18 18:34:00,33.8,32.3,29.47,ENE,57,3.0,7.0,94,0.06,,,0.23,VWS V12.07,2013-04-18 23:34:00,
2013-04-18 18:39:00,33.8,32.3,29.46,NE,36,5.0,7.0,94,0.06,,,0.23,VWS V12.07,2013-04-18 23:39:00,
2013-04-18 18:44:00,33.8,32.3,29.45,NNE,30,5.0,9.0,94,0.07,,,0.24,VWS V12.07,2013-04-18 23:44:00,
2013-04-18 18:49:00,33.8,32.3,29.45,ENE,72,8.0,9.0,94,0.07,,,0.24,VWS V12.07,2013-04-18 23:49:00,
2013-04-18 18:59:00,33.8,32.3,29.44,NE,51,4.0,9.0,94,0.08,,,0.25,VWS V12.07,2013-04-18 23:59:00,
2013-04-18 19:04:00,33.8,32.3,29.45,NE,51,4.0,6.0,94,0.06,,,0.27,VWS V12.07,2013-04-19 00:04:00,
2013-04-18 19:09:00,33.8,32.3,29.44,ENE,72,3.0,7.0,94,0.08,,,0.29,VWS V12.07,2013-04-19 00:09:00,
2013-04-18 19:14:00,33.8,32.3,29.45,NE,38,1.0,8.0,94,0.09,,,0.30,VWS V12.07,2013-04-19 00:14:00,
2013-04-18 19:19:00,33.7,32.2,29.45,ENE,76,3.0,8.0,94,0.09,,,0.30,VWS V12.07,2013-04-19 00:19:00,
2013-04-18 19:24:00,33.7,32.2,29.45,NE,38,2.0,8.0,94,0.10,,,0.31,VWS V12.07,2013-04-19 00:24:00,
2013-04-18 19:34:00,33.7,32.2,29.44,NE,34,2.0,6.0,94,0.10,,,0.33,VWS V12.07,2013-04-19 00:34:00,
2013-04-18 19:39:00,33.7,32.2,29.43,ENE,72,4.0,7.0,94,0.11,,,0.34,VWS V12.07,2013-04-19 00:39:00,
2013-04-18 19:44:00,33.7,32.2,29.43,ENE,74,3.0,7.0,94,0.11,,,0.34,VWS V12.07,2013-04-19 00:44:00,
2013-04-18 19:49:00,33.7,32.2,29.43,NE,51,4.0,8.0,94,0.12,,,0.35,VWS V12.07,2013-04-19 00:49:00,
2013-04-18 19:54:00,33.6,32.1,29.43,NE,46,1.0,8.0,94,0.13,,,0.36,VWS V12.07,2013-04-19 00:54:00,
2013-04-18 19:59:00,33.7,32.2,29.43,NE,38,3.0,8.0,94,0.13,,,0.36,VWS V12.07,2013-04-19 00:59:00,
2013-04-18 20:09:00,33.7,32.2,29.43,ENE,60,8.0,9.0,94,0.11,,,0.37,VWS V12.07,2013-04-19 01:09:00,
2013-04-18 20:14:00,33.7,32.2,29.43,NE,44,1.0,9.0,94,0.11,,,0.37,VWS V12.07,2013-04-19 01:14:00,
2013-04-18 20:19:00,33.7,32.2,29.44,ENE,61,2.0,9.0,94,0.11,,,0.37,VWS V12.07,2013-04-19 01:19:00,
2013-04-18 20:24:00,33.7,32.2,29.44,North,360,3.0,9.0,94,0.12,,,0.38,VWS V12.07,2013-04-19 01:24:00,
2013-04-18 20:29:00,33.7,32.2,29.44,NE,36,3.0,9.0,94,0.13,,,0.39,VWS V12.07,2013-04-19 01:29:00,
2013-04-18 20:34:00,33.7,32.2,29.43,NE,55,3.0,3.0,94,0.06,,,0.39,VWS V12.07,2013-04-19 01:34:00,
2013-04-18 20:39:00,33.7,32.2,29.42,ENE,59,2.0,5.0,94,0.07,,,0.40,VWS V12.07,2013-04-19 01:39:00,
2013-04-18 20:44:00,33.7,32.2,29.43,NE,49,2.0,7.0,94,0.07,,,0.40,VWS V12.07,2013-04-19 01:44:00,
2013-04-18 20:54:00,33.6,32.1,29.42,NE,36,1.0,7.0,94,0.07,,,0.40,VWS V12.07,2013-04-19 01:54:00,
2013-04-18 20:59:00,33.6,32.1,29.44,ENE,71,1.0,7.0,94,0.07,,,0.40,VWS V12.07,2013-04-19 01:59:00,
2013-04-18 21:04:00,33.6,32.1,29.44,NNE,25,3.0,3.0,94,0.05,,,0.41,VWS V12.07,2013-04-19 02:04:00,
2013-04-18 21:09:00,33.6,32.1,29.44,NNE,13,2.0,4.0,94,0.05,,,0.41,VWS V12.07,2013-04-19 02:09:00,
2013-04-18 21:14:00,33.5,32.0,29.44,ENE,57,2.0,4.0,94,0.06,,,0.42,VWS V12.07,2013-04-19 02:14:00,
2013-04-18 21:24:00,33.4,31.9,29.43,NE,43,3.0,6.0,94,0.06,,,0.42,VWS V12.07,2013-04-19 02:24:00,
2013-04-18 21:29:00,33.3,31.8,29.43,NE,53,4.0,6.0,94,0.07,,,0.43,VWS V12.07,2013-04-19 02:29:00,
2013-04-18 21:39:00,33.2,31.7,29.42,NE,40,4.0,8.0,94,0.04,,,0.43,VWS V12.07,2013-04-19 02:39:00,
2013-04-18 21:44:00,33.1,31.6,29.41,NE,37,2.0,8.0,94,0.04,,,0.43,VWS V12.07,2013-04-19 02:44:00,
2013-04-18 21:54:00,33.0,31.5,29.41,NNE,27,3.0,9.0,94,0.05,,,0.44,VWS V12.07,2013-04-19 02:54:00,
2013-04-18 21:59:00,32.9,31.4,29.40,NNE,26,2.0,9.0,94,0.05,,,0.44,VWS V12.07,2013-04-19 02:59:00,
2013-04-18 22:04:00,32.9,31.4,29.41,NNE,26,4.0,6.0,94,0.03,,,0.44,VWS V12.07,2013-04-19 03:04:00,
2013-04-18 22:09:00,32.9,31.4,29.40,NE,46,4.0,9.0,94,0.03,,,0.44,VWS V12.07,2013-04-19 03:09:00,
2013-04-18 22:14:00,32.8,31.3,29.40,NE,53,4.0,9.0,94,0.03,,,0.44,VWS V12.07,2013-04-19 03:14:00,
2013-04-18 22:24:00,32.7,31.2,29.39,NE,47,4.0,10.0,94,0.03,,,0.44,VWS V12.07,2013-04-19 03:24:00,
2013-04-18 22:34:00,32.6,31.1,29.38,NE,55,1.0,2.0,94,0.01,,,0.44,VWS V12.07,2013-04-19 03:34:00,
2013-04-18 22:39:00,32.6,31.1,29.38,North,10,2.0,5.0,94,0.01,,,0.44,VWS V12.07,2013-04-19 03:39:00,
2013-04-18 22:49:00,32.6,31.1,29.35,ENE,78,3.0,7.0,94,0.01,,,0.44,VWS V12.07,2013-04-19 03:49:00,
2013-04-18 22:54:00,32.5,31.0,29.35,ENE,61,3.0,7.0,94,0.01,,,0.44,VWS V12.07,2013-04-19 03:54:00,
2013-04-18 22:59:00,32.6,31.1,29.34,NNE,26,5.0,9.0,94,0.01,,,0.44,VWS V12.07,2013-04-19 03:59:00,
2013-04-18 23:04:00,32.6,31.1,29.33,ENE,64,7.0,11.0,94,0.00,,,0.44,VWS V12.07,2013-04-19 04:04:00,
2013-04-18 23:09:00,32.6,31.1,29.33,ENE,59,0.0,11.0,94,0.00,,,0.44,VWS V12.07,2013-04-19 04:09:00,
2013-04-18 23:14:00,32.6,31.1,29.33,NE,47,2.0,11.0,94,0.00,,,0.44,VWS V12.07,2013-04-19 04:14:00,
2013-04-18 23:19:00,32.6,31.1,29.33,NE,47,2.0,11.0,94,0.00,,,0.44,VWS V12.07,2013-04-19 04:19:00,
2013-04-18 23:24:00,32.6,31.1,29.33,NE,34,4.0,11.0,94,0.01,,,0.45,VWS V12.07,2013-04-19 04:24:00,
2013-04-18 23:29:00,32.6,31.1,29.33,NNE,12,2.0,11.0,94,0.01,,,0.45,VWS V12.07,2013-04-19 04:29:00,
2013-04-18 23:34:00,32.6,31.1,29.32,NE,36,2.0,4.0,94,0.01,,,0.45,VWS V12.07,2013-04-19 04:34:00,
2013-04-18 23:39:00,32.6,31.1,29.32,NE,38,3.0,7.0,94,0.01,,,0.45,VWS V12.07,2013-04-19 04:39:00,
2013-04-18 23:44:00,32.6,31.1,29.32,NNW,332,1.0,7.0,94,0.01,,,0.45,VWS V12.07,2013-04-19 04:44:00,
2013-04-18 23:49:00,32.6,31.1,29.32,NE,56,3.0,7.0,94,0.01,,,0.45,VWS V12.07,2013-04-19 04:49:00,
2013-04-18 23:54:00,32.6,31.1,29.31,NNE,30,2.0,7.0,94,0.01,,,0.45,VWS V12.07,2013-04-19 04:54:00,
2013-04-18 23:59:00,32.7,31.2,29.31,NE,36,4.0,7.0,94,0.02,,,0.46,VWS V12.07,2013-04-19 04:59:00,